Time;durP1;ratioP1;P1;durP2;ratioP2;P2;SDS_P1;SDS_P2;PMS_P1;PMS_P2;Temp;Humidity;BMP_temperature;BMP_pressure;BME280_temperature;BME280_humidity;BME280_pressure;Samples;Min_cycle;Max_cycle;Signal;HPM_P1;HPM_P2
2022/04/18 00:00:24;;;;;;;60.85;22.35;;;;;;;;;;4957013;28;20049;-89
2022/04/18 00:02:51;;;;;;;53.85;21.13;;;;;;;;;;4953349;28;20085;-89
2022/04/18 00:05:18;;;;;;;52.58;19.63;;;;;;;;;;4953728;28;20046;-89
2022/04/18 00:07:46;;;;;;;42.30;17.38;;;;;;;;;;4960387;28;20705;-89
2022/04/18 00:10:13;;;;;;;46.10;17.83;;;;;;;;;;4965162;28;20153;-88
2022/04/18 00:12:40;;;;;;;39.72;17.63;;;;;;;;;;4971025;28;20078;-89
2022/04/18 00:15:07;;;;;;;43.58;20.75;;;;;;;;;;4963337;28;20090;-89
2022/04/18 00:17:35;;;;;;;47.00;21.35;;;;;;;;;;4966926;28;20082;-90
2022/04/18 00:20:02;;;;;;;49.80;21.40;;;;;;;;;;4969434;28;20075;-88
2022/04/18 00:22:29;;;;;;;52.00;21.38;;;;;;;;;;4972449;28;20074;-89
2022/04/18 00:24:56;;;;;;;45.15;20.30;;;;;;;;;;4971100;28;20129;-88
2022/04/18 00:27:23;;;;;;;36.30;16.42;;;;;;;;;;4956099;28;20126;-88
2022/04/18 00:29:50;;;;;;;29.02;13.95;;;;;;;;;;4963637;28;20086;-89
2022/04/18 00:32:17;;;;;;;46.95;16.40;;;;;;;;;;4953061;28;20114;-89
2022/04/18 00:34:45;;;;;;;35.30;14.55;;;;;;;;;;4964286;28;20791;-89
2022/04/18 00:37:17;;;;;;;36.10;16.48;;;;;;;;;;4962901;28;20054;-90
2022/04/18 00:39:44;;;;;;;44.88;18.58;;;;;;;;;;4976876;28;20148;-90
2022/04/18 00:42:11;;;;;;;43.83;17.95;;;;;;;;;;4975148;28;20051;-89
2022/04/18 00:44:38;;;;;;;47.72;19.33;;;;;;;;;;4965068;28;20070;-89
2022/04/18 00:47:06;;;;;;;37.83;17.83;;;;;;;;;;4968767;28;20568;-89
2022/04/18 00:49:34;;;;;;;40.65;19.05;;;;;;;;;;4962754;28;20059;-88
2022/04/18 00:52:03;;;;;;;50.95;19.30;;;;;;;;;;4956300;28;20059;-88
2022/04/18 00:54:32;;;;;;;54.08;21.48;;;;;;;;;;4951916;28;20059;-89
2022/04/18 00:56:59;;;;;;;58.25;23.75;;;;;;;;;;4962202;28;20136;-89
2022/04/18 00:59:27;;;;;;;45.47;20.00;;;;;;;;;;4962821;28;20082;-89
2022/04/18 01:01:54;;;;;;;62.70;23.55;;;;;;;;;;4952416;28;20047;-89
2022/04/18 01:04:21;;;;;;;54.92;23.52;;;;;;;;;;4950347;29;20043;-89
2022/04/18 01:06:49;;;;;;;52.85;23.65;;;;;;;;;;4968101;28;20050;-88
2022/04/18 01:09:16;;;;;;;54.03;22.92;;;;;;;;;;4968263;28;20047;-89
2022/04/18 01:11:43;;;;;;;57.65;24.25;;;;;;;;;;4966317;28;20058;-89
2022/04/18 01:14:11;;;;;;;71.95;29.40;;;;;;;;;;4961792;28;20051;-89
2022/04/18 01:16:38;;;;;;;57.08;26.00;;;;;;;;;;4962746;28;20129;-88
2022/04/18 01:19:05;;;;;;;61.28;27.33;;;;;;;;;;4969982;28;20059;-88
2022/04/18 01:21:32;;;;;;;65.50;25.25;;;;;;;;;;4960739;28;20105;-88
2022/04/18 01:24:00;;;;;;;50.38;21.23;;;;;;;;;;4958132;28;20118;-89
2022/04/18 01:29:12;;;;;;;44.78;21.60;;;;;;;;;;4972017;28;20904;-90
2022/04/18 01:31:40;;;;;;;58.38;25.38;;;;;;;;;;4970112;28;20098;-89
2022/04/18 01:34:08;;;;;;;50.83;21.95;;;;;;;;;;4955526;28;20488;-89
2022/04/18 01:36:35;;;;;;;58.90;23.90;;;;;;;;;;4967089;28;20138;-89
2022/04/18 01:39:03;;;;;;;55.67;22.48;;;;;;;;;;4967791;28;20078;-88
2022/04/18 01:41:30;;;;;;;50.45;21.05;;;;;;;;;;4968875;28;20070;-89
2022/04/18 01:43:57;;;;;;;49.65;19.38;;;;;;;;;;4995411;28;20089;-89
2022/04/18 01:46:24;;;;;;;38.97;16.13;;;;;;;;;;4966570;28;20130;-88
2022/04/18 01:48:52;;;;;;;44.20;20.15;;;;;;;;;;4970954;28;20047;-88
2022/04/18 01:51:20;;;;;;;50.60;21.25;;;;;;;;;;4960808;28;20094;-89
2022/04/18 01:53:48;;;;;;;49.67;20.92;;;;;;;;;;4970956;28;20054;-89
2022/04/18 01:56:15;;;;;;;43.08;20.90;;;;;;;;;;4968162;28;20133;-89
2022/04/18 01:58:42;;;;;;;44.05;21.20;;;;;;;;;;4973885;28;20666;-89
2022/04/18 02:01:10;;;;;;;46.67;19.75;;;;;;;;;;4964326;28;20085;-88
2022/04/18 02:03:42;;;;;;;45.88;20.23;;;;;;;;;;4966545;28;20071;-88
2022/04/18 02:06:10;;;;;;;53.47;22.65;;;;;;;;;;4955894;28;20081;-88
2022/04/18 02:08:37;;;;;;;41.97;18.25;;;;;;;;;;4961121;28;20369;-89
2022/04/18 02:11:05;;;;;;;42.70;18.77;;;;;;;;;;4973270;28;20141;-89
2022/04/18 02:13:32;;;;;;;38.15;17.98;;;;;;;;;;4955170;28;20057;-88
2022/04/18 02:16:00;;;;;;;44.55;18.33;;;;;;;;;;4954515;28;20400;-89
2022/04/18 02:18:27;;;;;;;37.70;16.90;;;;;;;;;;4967667;28;20134;-89
2022/04/18 02:20:55;;;;;;;35.72;15.90;;;;;;;;;;4972339;28;20078;-89
2022/04/18 02:23:22;;;;;;;24.75;12.25;;;;;;;;;;4973437;28;20404;-88
2022/04/18 02:25:50;;;;;;;26.55;12.43;;;;;;;;;;4966281;28;20126;-88
2022/04/18 02:28:17;;;;;;;24.75;11.88;;;;;;;;;;4955270;28;20102;-88
2022/04/18 02:30:44;;;;;;;27.10;11.60;;;;;;;;;;4956312;28;20047;-88
2022/04/18 02:33:11;;;;;;;25.85;12.90;;;;;;;;;;4971638;28;20082;-89
2022/04/18 02:35:38;;;;;;;29.58;13.23;;;;;;;;;;4959085;28;20142;-88
2022/04/18 02:38:06;;;;;;;36.05;14.05;;;;;;;;;;4954342;28;20083;-89
2022/04/18 02:40:33;;;;;;;32.40;15.57;;;;;;;;;;4964052;28;20074;-88
2022/04/18 02:43:01;;;;;;;31.45;15.23;;;;;;;;;;4961600;28;20134;-89
2022/04/18 02:45:31;;;;;;;34.75;15.93;;;;;;;;;;4970036;28;20133;-89
2022/04/18 02:47:59;;;;;;;42.92;16.40;;;;;;;;;;4963532;28;20477;-88
2022/04/18 02:50:26;;;;;;;44.05;18.48;;;;;;;;;;4960899;28;20142;-88
2022/04/18 02:52:54;;;;;;;45.78;20.83;;;;;;;;;;4974000;28;20079;-87
2022/04/18 02:55:22;;;;;;;43.25;20.85;;;;;;;;;;4960222;28;20091;-88
2022/04/18 02:57:49;;;;;;;44.05;20.15;;;;;;;;;;4954891;28;20067;-89
2022/04/18 03:00:16;;;;;;;50.47;21.98;;;;;;;;;;4963934;28;20090;-89
2022/04/18 03:02:43;;;;;;;50.08;22.23;;;;;;;;;;4961840;28;20079;-88
2022/04/18 03:05:11;;;;;;;48.33;20.25;;;;;;;;;;4972508;28;20217;-88
2022/04/18 03:07:38;;;;;;;47.22;20.75;;;;;;;;;;4972196;28;20126;-89
2022/04/18 03:10:06;;;;;;;48.60;20.42;;;;;;;;;;4957575;28;20047;-89
2022/04/18 03:12:33;;;;;;;45.63;21.08;;;;;;;;;;4975657;28;20567;-88
2022/04/18 03:15:01;;;;;;;51.47;21.90;;;;;;;;;;4962758;28;20051;-88
2022/04/18 03:17:28;;;;;;;45.40;21.35;;;;;;;;;;4968135;28;20137;-88
2022/04/18 03:19:55;;;;;;;59.17;26.48;;;;;;;;;;4972257;28;20551;-89
2022/04/18 03:22:24;;;;;;;47.40;22.45;;;;;;;;;;4972574;28;20461;-89
2022/04/18 03:24:54;;;;;;;54.70;23.63;;;;;;;;;;4972570;28;20064;-88
2022/04/18 03:27:22;;;;;;;49.03;20.80;;;;;;;;;;4971682;28;20074;-87
2022/04/18 03:29:49;;;;;;;49.53;20.52;;;;;;;;;;4965085;28;20098;-89
2022/04/18 03:32:16;;;;;;;37.67;18.00;;;;;;;;;;4964183;28;20142;-88
2022/04/18 03:34:43;;;;;;;38.45;18.35;;;;;;;;;;4964625;28;20129;-89
2022/04/18 03:39:57;;;;;;;42.40;21.25;;;;;;;;;;4986037;28;20051;-88
2022/04/18 03:42:31;;;;;;;44.70;18.70;;;;;;;;;;4958128;28;20552;-88
2022/04/18 03:44:59;;;;;;;;;;;;;;;;;;4957560;28;20106;-88
2022/04/18 03:47:27;;;;;;;42.97;19.48;;;;;;;;;;4971170;28;19991;-88
2022/04/18 03:49:54;;;;;;;42.30;18.65;;;;;;;;;;4968200;28;20168;-88
2022/04/18 03:52:23;;;;;;;32.97;15.88;;;;;;;;;;4957906;28;20113;-88
2022/04/18 03:54:50;;;;;;;29.33;14.15;;;;;;;;;;4968935;28;20054;-88
2022/04/18 03:57:17;;;;;;;33.50;15.70;;;;;;;;;;4956970;28;20054;-80
2022/04/18 03:59:45;;;;;;;31.42;14.90;;;;;;;;;;4967370;28;20078;-80
2022/04/18 04:02:13;;;;;;;33.28;15.52;;;;;;;;;;4955444;28;20042;-81
2022/04/18 04:04:41;;;;;;;34.63;15.95;;;;;;;;;;4970018;28;20051;-81
2022/04/18 04:07:08;;;;;;;37.45;17.50;;;;;;;;;;4960058;28;20051;-82
2022/04/18 04:09:36;;;;;;;34.63;17.02;;;;;;;;;;4966294;28;20086;-81
2022/04/18 04:12:05;;;;;;;43.15;17.65;;;;;;;;;;4955452;28;20106;-81
2022/04/18 04:14:32;;;;;;;42.75;17.67;;;;;;;;;;4964213;28;20046;-81
2022/04/18 04:17:00;;;;;;;34.17;15.98;;;;;;;;;;4966362;28;20460;-82
2022/04/18 04:19:28;;;;;;;36.67;16.60;;;;;;;;;;4954080;28;20090;-81
2022/04/18 04:21:55;;;;;;;27.80;15.32;;;;;;;;;;4951290;28;20078;-82
2022/04/18 04:24:22;;;;;;;38.72;15.82;;;;;;;;;;4952970;28;20085;-81
2022/04/18 04:26:49;;;;;;;31.58;16.67;;;;;;;;;;4968506;28;20114;-82
2022/04/18 04:29:18;;;;;;;38.58;16.98;;;;;;;;;;4963262;28;20643;-81
2022/04/18 04:31:45;;;;;;;36.50;17.45;;;;;;;;;;4971450;28;20924;-82
2022/04/18 04:34:12;;;;;;;40.83;17.90;;;;;;;;;;4955629;28;20091;-82
2022/04/18 04:36:40;;;;;;;40.33;17.77;;;;;;;;;;4952564;28;20106;-82
2022/04/18 04:39:08;;;;;;;38.85;18.73;;;;;;;;;;4957788;28;20062;-82
2022/04/18 04:41:36;;;;;;;37.55;17.63;;;;;;;;;;4960165;28;20137;-81
2022/04/18 04:44:04;;;;;;;40.80;18.75;;;;;;;;;;4971133;28;20043;-82
2022/04/18 04:46:31;;;;;;;41.40;20.63;;;;;;;;;;4966192;28;20201;-82
2022/04/18 04:48:58;;;;;;;38.55;17.95;;;;;;;;;;4972147;28;20042;-81
2022/04/18 04:51:25;;;;;;;45.65;18.38;;;;;;;;;;4954690;28;20428;-81
2022/04/18 04:53:52;;;;;;;39.95;19.15;;;;;;;;;;4952723;28;20145;-81
2022/04/18 04:56:23;;;;;;;44.53;20.15;;;;;;;;;;4956734;28;20130;-81
2022/04/18 04:58:51;;;;;;;40.22;19.85;;;;;;;;;;4952669;28;20102;-81
2022/04/18 05:01:18;;;;;;;44.10;20.58;;;;;;;;;;4961630;28;20086;-82
2022/04/18 05:03:45;;;;;;;40.80;20.73;;;;;;;;;;4969591;28;20054;-81
2022/04/18 05:06:14;;;;;;;41.38;19.45;;;;;;;;;;4954964;28;20484;-81
2022/04/18 05:08:41;;;;;;;43.78;19.60;;;;;;;;;;4960381;28;20848;-80
2022/04/18 05:11:09;;;;;;;43.47;19.50;;;;;;;;;;4953005;28;20090;-80
2022/04/18 05:13:36;;;;;;;41.22;20.90;;;;;;;;;;4974233;28;20051;-80
2022/04/18 05:16:10;;;;;;;45.40;21.83;;;;;;;;;;4955127;28;20083;-80
2022/04/18 05:18:39;;;;;;;42.92;22.52;;;;;;;;;;4968013;28;20051;-88
2022/04/18 05:21:06;;;;;;;47.97;22.65;;;;;;;;;;4969462;28;20075;-87
2022/04/18 05:23:33;;;;;;;47.42;23.30;;;;;;;;;;4968577;28;20141;-88
2022/04/18 05:26:00;;;;;;;50.20;24.00;;;;;;;;;;4971584;28;20122;-88
2022/04/18 05:28:28;;;;;;;52.58;23.38;;;;;;;;;;4968082;28;20081;-88
2022/04/18 05:31:00;;;;;;;51.13;24.73;;;;;;;;;;4966622;28;20131;-89
2022/04/18 05:33:27;;;;;;;44.78;20.55;;;;;;;;;;4971544;28;20082;-89
2022/04/18 05:35:54;;;;;;;38.58;20.85;;;;;;;;;;4957995;28;20047;-88
2022/04/18 05:41:53;;;;;;;41.55;20.15;;;;;;;;;;4951547;28;20099;-76
2022/04/18 05:44:20;;;;;;;47.05;21.75;;;;;;;;;;4969083;28;20126;-76
2022/04/18 05:46:47;;;;;;;43.15;21.80;;;;;;;;;;4962815;28;20085;-76
2022/04/18 05:49:15;;;;;;;48.70;22.08;;;;;;;;;;4969103;28;20138;-76
2022/04/18 05:51:42;;;;;;;43.63;23.35;;;;;;;;;;4957795;28;20063;-77
2022/04/18 05:54:10;;;;;;;44.15;22.33;;;;;;;;;;4969004;28;20082;-77
2022/04/18 05:56:37;;;;;;;42.97;22.67;;;;;;;;;;4964204;28;20158;-77
2022/04/18 05:59:04;;;;;;;41.88;21.33;;;;;;;;;;4969447;28;20826;-77
2022/04/18 06:01:31;;;;;;;39.33;22.45;;;;;;;;;;4957970;28;20126;-77
2022/04/18 06:03:58;;;;;;;49.78;24.60;;;;;;;;;;4964820;28;20429;-77
2022/04/18 06:06:26;;;;;;;44.00;22.38;;;;;;;;;;4969693;28;20081;-77
2022/04/18 06:08:53;;;;;;;49.63;22.80;;;;;;;;;;4954573;28;20055;-77
2022/04/18 06:11:20;;;;;;;49.42;24.33;;;;;;;;;;4964520;28;20090;-77
2022/04/18 06:13:47;;;;;;;44.88;24.73;;;;;;;;;;4961873;28;20054;-77
2022/04/18 06:16:15;;;;;;;50.67;27.23;;;;;;;;;;4962210;28;20055;-77
2022/04/18 06:18:42;;;;;;;51.80;26.65;;;;;;;;;;4955252;28;20097;-77
2022/04/18 06:21:11;;;;;;;51.97;28.27;;;;;;;;;;4963440;28;20138;-77
2022/04/18 06:23:38;;;;;;;52.53;24.65;;;;;;;;;;4962304;28;20078;-74
2022/04/18 06:26:05;;;;;;;44.58;23.92;;;;;;;;;;4957418;28;20071;-75
2022/04/18 06:28:32;;;;;;;39.05;21.90;;;;;;;;;;4963314;28;20120;-75
2022/04/18 06:30:59;;;;;;;39.63;21.83;;;;;;;;;;4966114;28;20074;-75
2022/04/18 06:33:28;;;;;;;35.60;21.73;;;;;;;;;;4961768;28;20162;-75
2022/04/18 06:35:55;;;;;;;34.78;19.25;;;;;;;;;;4958644;28;20075;-75
2022/04/18 06:38:24;;;;;;;29.48;16.95;;;;;;;;;;4960739;28;20559;-75
2022/04/18 06:40:51;;;;;;;32.33;17.92;;;;;;;;;;4969255;28;20847;-75
2022/04/18 06:43:18;;;;;;;28.20;13.80;;;;;;;;;;4965181;28;20137;-75
2022/04/18 06:45:45;;;;;;;30.98;15.48;;;;;;;;;;4962810;28;20051;-75
2022/04/18 06:48:13;;;;;;;25.33;13.82;;;;;;;;;;4968388;28;20089;-75
2022/04/18 06:50:40;;;;;;;28.67;15.00;;;;;;;;;;4961548;28;20130;-75
2022/04/18 06:53:07;;;;;;;26.92;15.45;;;;;;;;;;4960460;28;20486;-75
2022/04/18 06:58:20;;;;;;;27.40;15.48;;;;;;;;;;4961383;28;20082;-75
2022/04/18 07:00:47;;;;;;;25.17;14.30;;;;;;;;;;4959570;28;20130;-75
2022/04/18 07:03:14;;;;;;;25.92;14.23;;;;;;;;;;4963962;28;20055;-75
2022/04/18 07:05:42;;;;;;;28.65;15.57;;;;;;;;;;4948933;28;20760;-75
2022/04/18 07:08:10;;;;;;;23.98;14.00;;;;;;;;;;4960108;28;20090;-75
2022/04/18 07:13:55;;;;;;;20.13;11.05;;;;;;;;;;4936117;29;20547;-77
2022/04/18 07:16:22;;;;;;;21.40;11.43;;;;;;;;;;4942582;29;20138;-77
2022/04/18 07:18:50;;;;;;;22.70;11.30;;;;;;;;;;4946036;29;20055;-78
2022/04/18 07:21:17;;;;;;;24.17;10.77;;;;;;;;;;4936178;28;20182;-77
2022/04/18 07:23:44;;;;;;;19.05;10.25;;;;;;;;;;4944353;29;20079;-79
2022/04/18 07:26:11;;;;;;;20.17;10.27;;;;;;;;;;4945182;28;20767;-76
2022/04/18 07:28:39;;;;;;;15.75;9.90;;;;;;;;;;4944257;28;20106;-77
2022/04/18 07:31:09;;;;;;;20.42;9.88;;;;;;;;;;4941151;29;20047;-75
2022/04/18 07:33:36;;;;;;;15.82;9.13;;;;;;;;;;4946613;28;20515;-78
2022/04/18 07:36:04;;;;;;;18.10;8.98;;;;;;;;;;4942536;28;20047;-75
2022/04/18 07:38:50;;;;;;;16.30;8.88;;;;;;;;;;4929573;29;20051;-76
2022/04/18 07:41:18;;;;;;;13.07;7.82;;;;;;;;;;4938872;29;20047;-74
2022/04/18 07:43:45;;;;;;;16.83;8.30;;;;;;;;;;4931064;28;20139;-74
2022/04/18 07:46:13;;;;;;;14.52;8.02;;;;;;;;;;4941522;29;20135;-76
2022/04/18 07:48:40;;;;;;;29.88;12.13;;;;;;;;;;4947780;28;20074;-76
2022/04/18 07:53:53;;;;;;;11.77;7.80;;;;;;;;;;4947154;28;20787;-76
2022/04/18 07:56:21;;;;;;;14.10;7.90;;;;;;;;;;4936167;28;20138;-76
2022/04/18 07:58:49;;;;;;;14.45;7.65;;;;;;;;;;4939310;29;20130;-75
2022/04/18 08:01:16;;;;;;;11.73;7.18;;;;;;;;;;4945958;29;20636;-77
2022/04/18 08:03:43;;;;;;;12.75;7.28;;;;;;;;;;4945947;28;20139;-75
2022/04/18 08:06:10;;;;;;;12.73;8.27;;;;;;;;;;4943823;29;20473;-75
2022/04/18 08:08:38;;;;;;;15.70;9.13;;;;;;;;;;4948611;28;20094;-76
2022/04/18 08:11:05;;;;;;;16.65;7.85;;;;;;;;;;4944836;28;20055;-76
2022/04/18 08:13:32;;;;;;;12.07;7.88;;;;;;;;;;4945693;28;20134;-75
2022/04/18 08:15:59;;;;;;;13.32;7.57;;;;;;;;;;4943805;29;20055;-75
2022/04/18 08:18:27;;;;;;;18.17;7.50;;;;;;;;;;4945588;28;20051;-76
2022/04/18 08:20:54;;;;;;;12.65;6.93;;;;;;;;;;4937037;29;20802;-75
2022/04/18 08:23:21;;;;;;;13.43;7.85;;;;;;;;;;4945845;28;20683;-75
2022/04/18 08:25:49;;;;;;;12.65;7.72;;;;;;;;;;4936185;29;20114;-76
2022/04/18 08:28:16;;;;;;;11.70;7.40;;;;;;;;;;4945719;28;20090;-76
2022/04/18 08:30:43;;;;;;;10.77;7.28;;;;;;;;;;4938552;28;20043;-76
2022/04/18 08:33:10;;;;;;;11.20;7.40;;;;;;;;;;4945140;29;20385;-76
2022/04/18 08:35:38;;;;;;;10.10;6.90;;;;;;;;;;4945961;28;20075;-75
2022/04/18 08:38:05;;;;;;;11.93;7.68;;;;;;;;;;4944831;29;20107;-77
2022/04/18 08:40:34;;;;;;;11.10;7.15;;;;;;;;;;4937072;29;20479;-76
2022/04/18 08:43:01;;;;;;;10.40;6.65;;;;;;;;;;4943454;29;20055;-74
2022/04/18 08:45:28;;;;;;;11.20;7.65;;;;;;;;;;4939367;29;20137;-76
2022/04/18 08:53:32;;;;;;;11.98;7.70;;;;;;;;;;4943869;29;20114;-75
2022/04/18 08:55:59;;;;;;;13.05;7.47;;;;;;;;;;4936911;29;20147;-76
2022/04/18 08:58:27;;;;;;;11.05;7.38;;;;;;;;;;4938730;29;20094;-76
2022/04/18 09:00:55;;;;;;;13.27;7.38;;;;;;;;;;4938830;29;20837;-76
2022/04/18 09:03:25;;;;;;;13.75;7.45;;;;;;;;;;4944225;28;20079;-76
2022/04/18 09:06:08;;;;;;;12.00;8.25;;;;;;;;;;4952500;28;20139;-76
2022/04/18 09:08:44;;;;;;;19.23;7.93;;;;;;;;;;4928866;29;20067;-76
2022/04/18 09:11:11;;;;;;;18.85;7.45;;;;;;;;;;4951085;28;20476;-76
2022/04/18 09:13:43;;;;;;;10.63;7.32;;;;;;;;;;4928557;29;20056;-76
2022/04/18 09:16:16;;;;;;;13.35;7.43;;;;;;;;;;4935914;29;20732;-76
2022/04/18 09:18:43;;;;;;;10.15;5.97;;;;;;;;;;4944642;29;20065;-76
2022/04/18 09:21:10;;;;;;;13.82;5.30;;;;;;;;;;4944819;28;20494;-76
2022/04/18 09:23:38;;;;;;;7.60;4.35;;;;;;;;;;4932870;29;20540;-76
2022/04/18 09:26:07;;;;;;;8.90;4.88;;;;;;;;;;4934917;29;20074;-76
2022/04/18 09:28:41;;;;;;;8.10;4.72;;;;;;;;;;4945474;29;20456;-76
2022/04/18 09:31:10;;;;;;;7.57;5.07;;;;;;;;;;4944023;29;20134;-76
2022/04/18 09:33:56;;;;;;;18.35;6.75;;;;;;;;;;4934422;28;20059;-76
2022/04/18 09:36:24;;;;;;;7.28;5.38;;;;;;;;;;4945203;29;20507;-76
2022/04/18 09:38:52;;;;;;;8.90;6.00;;;;;;;;;;4944645;29;20043;-76
2022/04/18 09:41:23;;;;;;;10.02;4.60;;;;;;;;;;4946244;28;20094;-76
2022/04/18 09:43:52;;;;;;;8.25;4.38;;;;;;;;;;4931443;29;20147;-76
2022/04/18 09:46:19;;;;;;;11.73;5.38;;;;;;;;;;4936213;29;20131;-76
2022/04/18 09:48:48;;;;;;;8.82;5.88;;;;;;;;;;4957902;28;20130;-76
2022/04/18 09:51:17;;;;;;;8.65;5.43;;;;;;;;;;4944849;29;20138;-74
2022/04/18 09:53:46;;;;;;;8.70;5.18;;;;;;;;;;4945769;28;20115;-75
2022/04/18 09:56:17;;;;;;;7.57;5.18;;;;;;;;;;4935011;29;20095;-75
2022/04/18 09:58:44;;;;;;;6.20;4.30;;;;;;;;;;4925557;29;20079;-74
2022/04/18 10:01:30;;;;;;;5.30;3.47;;;;;;;;;;4932796;29;20074;-74
2022/04/18 10:03:57;;;;;;;5.45;3.75;;;;;;;;;;4948209;29;20090;-75
2022/04/18 10:06:25;;;;;;;6.20;3.70;;;;;;;;;;4939104;28;20729;-75
2022/04/18 10:08:53;;;;;;;4.90;3.50;;;;;;;;;;4930619;29;20134;-75
2022/04/18 10:11:23;;;;;;;6.40;3.65;;;;;;;;;;4930374;29;20572;-75
2022/04/18 10:13:50;;;;;;;5.38;3.10;;;;;;;;;;4943186;29;20059;-75
2022/04/18 10:16:19;;;;;;;5.53;3.30;;;;;;;;;;4939903;28;20433;-75
2022/04/18 10:18:50;;;;;;;5.57;4.05;;;;;;;;;;4930693;29;20075;-75
2022/04/18 10:21:27;;;;;;;6.32;3.85;;;;;;;;;;4938031;29;20117;-75
2022/04/18 10:24:04;;;;;;;6.25;3.90;;;;;;;;;;4949595;28;20142;-75
2022/04/18 10:26:53;;;;;;;4.70;3.55;;;;;;;;;;4938067;28;20143;-75
2022/04/18 10:29:25;;;;;;;7.80;3.63;;;;;;;;;;4930493;29;20056;-75
2022/04/18 10:31:57;;;;;;;5.13;3.50;;;;;;;;;;4945736;29;20142;-75
2022/04/18 10:34:31;;;;;;;6.07;3.38;;;;;;;;;;4947966;29;20138;-75
2022/04/18 10:37:00;;;;;;;7.00;4.20;;;;;;;;;;4935754;28;20089;-75
2022/04/18 10:39:34;;;;;;;4.13;3.13;;;;;;;;;;4940636;29;20461;-76
2022/04/18 10:42:21;;;;;;;5.28;3.65;;;;;;;;;;4947369;29;20139;-75
2022/04/18 10:44:58;;;;;;;7.05;3.35;;;;;;;;;;4961363;28;20656;-75
2022/04/18 10:47:26;;;;;;;5.38;3.63;;;;;;;;;;4945153;29;20055;-75
2022/04/18 10:50:12;;;;;;;5.05;3.30;;;;;;;;;;4948862;28;20134;-75
2022/04/18 10:52:39;;;;;;;4.60;3.38;;;;;;;;;;4948733;29;20082;-75
2022/04/18 10:55:06;;;;;;;5.03;3.20;;;;;;;;;;4947987;28;20162;-76
2022/04/18 10:57:33;;;;;;;4.65;3.00;;;;;;;;;;4945827;29;20102;-75
2022/04/18 11:00:05;;;;;;;5.93;3.65;;;;;;;;;;4948120;28;20106;-75
2022/04/18 11:02:39;;;;;;;5.45;3.45;;;;;;;;;;4947335;29;20117;-75
2022/04/18 11:05:07;;;;;;;5.55;3.45;;;;;;;;;;4947565;29;20067;-75
2022/04/18 11:07:42;;;;;;;4.22;3.22;;;;;;;;;;4947406;29;20472;-75
2022/04/18 11:10:18;;;;;;;3.58;2.33;;;;;;;;;;4947218;28;20066;-75
2022/04/18 11:12:46;;;;;;;4.93;3.00;;;;;;;;;;4936611;29;20143;-75
2022/04/18 11:15:13;;;;;;;4.32;2.70;;;;;;;;;;4947011;29;20138;-75
2022/04/18 11:17:41;;;;;;;6.85;3.20;;;;;;;;;;4948629;28;20574;-75
2022/04/18 11:20:28;;;;;;;4.40;3.35;;;;;;;;;;4946751;29;20910;-75
2022/04/18 11:23:14;;;;;;;5.13;3.50;;;;;;;;;;4947013;29;20733;-76
2022/04/18 11:25:52;;;;;;;6.05;3.10;;;;;;;;;;4942432;29;20709;-75
2022/04/18 11:28:19;;;;;;;5.20;3.55;;;;;;;;;;4928079;29;20080;-76
2022/04/18 11:30:46;;;;;;;5.32;3.25;;;;;;;;;;4927282;29;20058;-75
2022/04/18 11:33:13;;;;;;;4.72;3.30;;;;;;;;;;4938348;29;20841;-76
2022/04/18 11:35:40;;;;;;;5.15;2.83;;;;;;;;;;4948244;28;20051;-75
2022/04/18 11:38:08;;;;;;;4.32;2.75;;;;;;;;;;4946582;29;20055;-75
2022/04/18 11:40:36;;;;;;;4.95;3.28;;;;;;;;;;4928969;28;20111;-75
2022/04/18 11:43:11;;;;;;;3.75;3.17;;;;;;;;;;4929425;29;20138;-75
2022/04/18 11:45:38;;;;;;;3.80;2.90;;;;;;;;;;4940369;29;20134;-75
2022/04/18 11:48:06;;;;;;;6.13;2.92;;;;;;;;;;4947987;28;20370;-76
2022/04/18 11:50:37;;;;;;;4.68;3.25;;;;;;;;;;4929881;29;20162;-76
2022/04/18 11:53:09;;;;;;;5.20;3.05;;;;;;;;;;4936359;29;20847;-76
2022/04/18 11:55:49;;;;;;;5.65;3.95;;;;;;;;;;4944610;29;20078;-76
2022/04/18 11:58:21;;;;;;;4.80;3.17;;;;;;;;;;4947582;28;20054;-76
2022/04/18 12:09:11;;;;;;;5.38;2.55;;;;;;;;;;4947433;28;20114;-75
2022/04/18 12:11:38;;;;;;;3.78;3.10;;;;;;;;;;4934506;28;20879;-74
2022/04/18 12:14:05;;;;;;;4.45;2.90;;;;;;;;;;4943104;29;20086;-75
2022/04/18 12:16:37;;;;;;;2.92;2.63;;;;;;;;;;4944232;28;20139;-74
2022/04/18 12:19:05;;;;;;;4.78;2.83;;;;;;;;;;4945467;29;20047;-74
2022/04/18 12:21:35;;;;;;;3.67;3.05;;;;;;;;;;4933939;29;20154;-75
2022/04/18 12:24:02;;;;;;;3.97;3.15;;;;;;;;;;4944541;28;20413;-75
2022/04/18 12:26:31;;;;;;;4.22;2.63;;;;;;;;;;4935079;29;20118;-75
2022/04/18 12:29:11;;;;;;;9.02;3.00;;;;;;;;;;4928203;29;20134;-75
2022/04/18 12:31:41;;;;;;;4.72;3.17;;;;;;;;;;4938087;29;20134;-74
2022/04/18 12:34:18;;;;;;;5.72;3.28;;;;;;;;;;4931848;28;20481;-75
2022/04/18 12:36:55;;;;;;;5.97;2.80;;;;;;;;;;4935161;28;20106;-75
2022/04/18 12:39:22;;;;;;;4.50;2.95;;;;;;;;;;4927929;29;20048;-76
2022/04/18 12:41:59;;;;;;;3.65;2.70;;;;;;;;;;4941661;29;20083;-75
2022/04/18 12:44:28;;;;;;;3.92;2.25;;;;;;;;;;4945893;29;20129;-76
2022/04/18 12:46:55;;;;;;;3.47;2.33;;;;;;;;;;4946519;29;20086;-75
2022/04/18 12:49:22;;;;;;;3.60;2.40;;;;;;;;;;4945129;29;20055;-75
2022/04/18 12:51:51;;;;;;;3.58;2.58;;;;;;;;;;4945745;28;20511;-75
2022/04/18 12:54:19;;;;;;;3.97;2.60;;;;;;;;;;4928006;28;20669;-76
2022/04/18 12:56:46;;;;;;;3.42;2.85;;;;;;;;;;4941140;29;20079;-75
2022/04/18 12:59:14;;;;;;;4.57;3.00;;;;;;;;;;4945317;29;20138;-75
2022/04/18 13:01:41;;;;;;;4.60;2.55;;;;;;;;;;4922738;28;20556;-75
2022/04/18 13:04:21;;;;;;;3.00;2.10;;;;;;;;;;4922680;29;20126;-75
2022/04/18 13:07:08;;;;;;;2.95;1.83;;;;;;;;;;4940614;28;20217;-75
2022/04/18 13:09:35;;;;;;;3.90;1.95;;;;;;;;;;4920936;29;20058;-75
2022/04/18 13:12:10;;;;;;;4.63;1.98;;;;;;;;;;4939439;28;20055;-75
2022/04/18 13:14:55;;;;;;;6.83;2.13;;;;;;;;;;4927689;29;20103;-75
2022/04/18 13:17:22;;;;;;;3.45;1.95;;;;;;;;;;4928390;29;20134;-75
2022/04/18 13:19:50;;;;;;;3.50;2.50;;;;;;;;;;4938050;29;20134;-74
2022/04/18 13:22:17;;;;;;;4.50;2.35;;;;;;;;;;4944253;28;20078;-75
2022/04/18 13:24:44;;;;;;;3.15;2.35;;;;;;;;;;4926417;29;20119;-75
2022/04/18 13:27:27;;;;;;;3.88;2.35;;;;;;;;;;4944309;29;20134;-76
2022/04/18 13:29:54;;;;;;;4.53;2.47;;;;;;;;;;4945095;29;20051;-76
2022/04/18 13:32:24;;;;;;;4.20;2.05;;;;;;;;;;4943455;28;20134;-77
2022/04/18 13:34:51;;;;;;;2.92;2.00;;;;;;;;;;4945329;28;20047;-76
2022/04/18 13:37:18;;;;;;;3.60;2.15;;;;;;;;;;4949938;28;20149;-75
2022/04/18 13:39:51;;;;;;;4.88;2.72;;;;;;;;;;4948741;29;20043;-75
2022/04/18 13:42:18;;;;;;;4.05;1.75;;;;;;;;;;4933074;28;20720;-75
2022/04/18 13:44:45;;;;;;;3.47;1.80;;;;;;;;;;4949241;29;20051;-75
2022/04/18 13:47:12;;;;;;;2.15;1.50;;;;;;;;;;4938234;29;20059;-76
2022/04/18 13:49:40;;;;;;;2.78;1.75;;;;;;;;;;4949764;28;20194;-76
2022/04/18 13:52:10;;;;;;;2.28;1.60;;;;;;;;;;4943096;29;20055;-76
2022/04/18 13:54:38;;;;;;;2.80;1.60;;;;;;;;;;4929882;29;20075;-76
2022/04/18 13:57:06;;;;;;;2.50;1.30;;;;;;;;;;4946371;29;20078;-76
2022/04/18 13:59:33;;;;;;;3.55;1.38;;;;;;;;;;4946778;28;20075;-76
2022/04/18 14:02:01;;;;;;;3.83;1.38;;;;;;;;;;4930226;29;20107;-76
2022/04/18 14:04:28;;;;;;;5.03;1.33;;;;;;;;;;4947051;29;20535;-76
2022/04/18 14:06:56;;;;;;;4.63;1.10;;;;;;;;;;4947570;29;20130;-76
2022/04/18 14:09:25;;;;;;;2.13;1.15;;;;;;;;;;4946897;28;20185;-76
2022/04/18 14:11:52;;;;;;;1.15;0.95;;;;;;;;;;4928207;29;20063;-76
2022/04/18 14:22:37;;;;;;;1.67;0.80;;;;;;;;;;4939599;29;20100;-76
2022/04/18 14:25:05;;;;;;;2.28;0.90;;;;;;;;;;4928938;29;20545;-75
2022/04/18 14:27:33;;;;;;;1.90;0.90;;;;;;;;;;4946693;29;20142;-76
2022/04/18 14:30:00;;;;;;;5.47;1.52;;;;;;;;;;4947954;28;20481;-76
2022/04/18 14:32:27;;;;;;;4.15;1.70;;;;;;;;;;4929232;29;20163;-76
2022/04/18 14:34:54;;;;;;;3.08;1.20;;;;;;;;;;4941461;29;20472;-76
2022/04/18 14:37:24;;;;;;;2.58;1.05;;;;;;;;;;4945339;29;20056;-76
2022/04/18 14:39:55;;;;;;;3.10;1.20;;;;;;;;;;4949416;28;20469;-75
2022/04/18 14:42:24;;;;;;;3.13;1.50;;;;;;;;;;4945697;29;20054;-75
2022/04/18 14:44:52;;;;;;;4.07;1.15;;;;;;;;;;4930078;29;20820;-75
2022/04/18 14:47:19;;;;;;;2.83;1.10;;;;;;;;;;4929399;29;20479;-75
2022/04/18 14:49:47;;;;;;;2.65;0.85;;;;;;;;;;4946483;29;20087;-75
2022/04/18 14:52:14;;;;;;;8.85;1.20;;;;;;;;;;4947221;29;20070;-75
2022/04/18 14:54:41;;;;;;;3.88;2.47;;;;;;;;;;4949083;28;20054;-75
2022/04/18 14:57:08;;;;;;;6.50;2.47;;;;;;;;;;4943729;28;20075;-75
2022/04/18 14:59:35;;;;;;;4.32;0.93;;;;;;;;;;4943072;29;20053;-75
2022/04/18 15:02:03;;;;;;;2.25;1.17;;;;;;;;;;4940469;29;20512;-74
2022/04/18 15:04:30;;;;;;;3.80;1.73;;;;;;;;;;4958629;28;20079;-74
2022/04/18 15:06:57;;;;;;;6.75;2.90;;;;;;;;;;4936289;29;20086;-74
2022/04/18 15:09:24;;;;;;;2.30;1.27;;;;;;;;;;4944985;28;20461;-81
2022/04/18 15:11:51;;;;;;;3.70;1.48;;;;;;;;;;4935080;28;20477;-80
2022/04/18 15:17:09;;;;;;;3.92;1.65;;;;;;;;;;4908508;29;20797;-79
2022/04/18 15:19:37;;;;;;;31.63;5.80;;;;;;;;;;4912386;29;20055;-80